Time;durP1;ratioP1;P1;durP2;ratioP2;P2;SDS_P1;SDS_P2;PMS_P1;PMS_P2;Temp;Humidity;BMP_temperature;BMP_pressure;BME280_temperature;BME280_humidity;BME280_pressure;Samples;Min_cycle;Max_cycle;Signal;HPM_P1;HPM_P2
2023/01/16 00:01:55;;;;;;;9.63;5.40;;;4.20;73.40;;;;;;5052851;28;20107;-63
2023/01/16 00:04:21;;;;;;;7.63;5.20;;;4.20;73.50;;;;;;5046084;28;20025;-63
2023/01/16 00:06:47;;;;;;;9.00;5.60;;;4.20;73.50;;;;;;5053558;28;20459;-63
2023/01/16 00:09:13;;;;;;;9.18;6.43;;;4.20;73.60;;;;;;5058214;28;20033;-62
2023/01/16 00:11:38;;;;;;;12.57;7.53;;;4.30;73.70;;;;;;5053233;28;20499;-63
2023/01/16 00:14:04;;;;;;;14.60;7.88;;;4.30;73.60;;;;;;5055053;28;20037;-63
2023/01/16 00:16:30;;;;;;;14.52;8.10;;;4.30;73.80;;;;;;5045623;28;20380;-64
2023/01/16 00:18:56;;;;;;;14.43;8.00;;;4.30;73.80;;;;;;5052352;28;20025;-62
2023/01/16 00:21:26;;;;;;;12.65;8.00;;;4.30;73.70;;;;;;5056006;28;20036;-63
2023/01/16 00:23:56;;;;;;;11.18;6.50;;;4.30;73.70;;;;;;5051694;28;20021;-63
2023/01/16 00:26:22;;;;;;;12.57;7.18;;;4.30;73.90;;;;;;5054360;28;20045;-62
2023/01/16 00:28:48;;;;;;;9.20;6.05;;;4.30;73.90;;;;;;5055710;28;20033;-64
2023/01/16 00:31:14;;;;;;;6.80;4.82;;;4.30;74.00;;;;;;5060938;28;20040;-62
2023/01/16 00:33:40;;;;;;;9.02;5.47;;;4.30;74.00;;;;;;5051697;28;20029;-64
2023/01/16 00:36:07;;;;;;;7.13;5.25;;;4.30;74.10;;;;;;5061407;28;20395;-62
2023/01/16 00:38:33;;;;;;;10.70;6.90;;;4.30;74.10;;;;;;5053020;28;20025;-63
2023/01/16 00:40:58;;;;;;;6.82;5.07;;;4.30;74.20;;;;;;5069913;28;20112;-61
2023/01/16 00:43:24;;;;;;;8.13;5.55;;;4.30;74.30;;;;;;5053790;28;20136;-57
2023/01/16 00:45:50;;;;;;;7.20;5.38;;;4.20;74.40;;;;;;5059478;28;20041;-63
2023/01/16 00:48:15;;;;;;;7.13;5.28;;;4.20;74.70;;;;;;5042877;28;20087;-62
2023/01/16 00:50:41;;;;;;;8.55;5.90;;;4.20;74.60;;;;;;5060954;28;20031;-63
2023/01/16 00:53:07;;;;;;;7.13;5.45;;;4.20;74.70;;;;;;5056647;28;20039;-63
2023/01/16 00:55:35;;;;;;;8.90;6.28;;;4.20;74.90;;;;;;5052607;28;20041;-63
2023/01/16 00:58:01;;;;;;;9.05;6.13;;;4.10;75.00;;;;;;5047445;28;20032;-62
2023/01/16 01:00:26;;;;;;;7.63;5.57;;;4.10;75.10;;;;;;5054947;28;20452;-63
2023/01/16 01:02:52;;;;;;;7.45;5.75;;;4.10;75.30;;;;;;5051351;28;20056;-64
2023/01/16 01:05:18;;;;;;;6.53;4.95;;;4.10;75.50;;;;;;5058312;28;20025;-61
2023/01/16 01:07:43;;;;;;;7.90;5.50;;;4.20;75.70;;;;;;5058665;28;20037;-63
2023/01/16 01:10:09;;;;;;;10.50;6.28;;;4.20;75.80;;;;;;5058340;28;20115;-61
2023/01/16 01:12:35;;;;;;;7.85;5.85;;;4.30;75.80;;;;;;5051593;28;20036;-63
2023/01/16 01:15:01;;;;;;;9.30;6.30;;;4.30;75.80;;;;;;5051264;28;20485;-63
2023/01/16 01:17:27;;;;;;;7.03;5.55;;;4.30;75.70;;;;;;5050450;28;20094;-54
2023/01/16 01:19:53;;;;;;;9.77;6.40;;;4.40;75.70;;;;;;5057510;28;20485;-53
2023/01/16 01:22:19;;;;;;;10.43;6.63;;;4.30;75.70;;;;;;5053528;28;20024;-60
2023/01/16 01:24:48;;;;;;;7.57;5.60;;;4.30;75.60;;;;;;5051448;28;20479;-60
2023/01/16 01:27:13;;;;;;;7.88;5.82;;;4.30;76.50;;;;;;5051470;28;20170;-54
2023/01/16 01:29:39;;;;;;;9.82;6.05;;;4.40;76.00;;;;;;5060155;28;20119;-57
2023/01/16 01:32:05;;;;;;;9.77;5.85;;;4.40;76.00;;;;;;5052987;28;20087;-58
2023/01/16 01:34:33;;;;;;;6.90;5.47;;;4.40;75.90;;;;;;5061079;28;20081;-59
2023/01/16 01:37:00;;;;;;;7.63;5.70;;;4.40;75.90;;;;;;5055719;28;20043;-56
2023/01/16 01:39:26;;;;;;;7.07;5.40;;;4.50;75.80;;;;;;5059849;28;20033;-54
2023/01/16 01:42:41;;;;;;;8.60;6.15;;;4.50;75.80;;;;;;5045518;28;20025;-56
2023/01/16 01:45:00;;;;;;;8.00;5.75;;;4.50;75.70;;;;;;5048598;28;20780;-51
2023/01/16 01:47:32;;;;;;;7.03;5.68;;;4.50;75.70;;;;;;5061127;28;20114;-55
2023/01/16 01:50:01;;;;;;;12.00;7.55;;;4.50;75.90;;;;;;5047108;28;20483;-56
2023/01/16 01:52:29;;;;;;;15.18;9.23;;;4.50;76.10;;;;;;5045518;28;20025;-51
2023/01/16 01:55:01;;;;;;;26.52;11.68;;;4.60;75.80;;;;;;5054029;28;20033;-50
2023/01/16 01:57:37;;;;;;;25.73;12.52;;;4.60;75.80;;;;;;5048330;28;20040;-57
2023/01/16 02:00:18;;;;;;;16.63;10.02;;;4.50;75.70;;;;;;5044357;28;20043;-56
2023/01/16 02:02:50;;;;;;;21.52;12.32;;;4.50;75.70;;;;;;5055261;28;20036;-58
2023/01/16 02:05:23;;;;;;;20.40;10.73;;;4.50;75.80;;;;;;5051808;28;20075;-49
2023/01/16 02:07:49;;;;;;;13.18;8.32;;;4.50;76.00;;;;;;5040621;28;20468;-49
2023/01/16 02:10:32;;;;;;;14.73;8.40;;;4.40;75.90;;;;;;5058178;28;20111;-55
2023/01/16 02:13:00;;;;;;;11.48;7.18;;;4.40;76.00;;;;;;5050166;28;20037;-60
2023/01/16 02:15:25;;;;;;;7.82;6.00;;;4.40;76.20;;;;;;5051092;28;20040;-55
2023/01/16 02:21:17;;;;;;;6.75;4.90;;;4.40;76.40;;;;;;5053600;28;20032;-56
2023/01/16 02:24:04;;;;;;;6.63;4.72;;;4.40;76.20;;;;;;5044680;28;20063;-54
2023/01/16 02:26:35;;;;;;;7.28;5.30;;;4.30;76.20;;;;;;5055184;28;20426;-63
2023/01/16 02:29:23;;;;;;;6.32;4.53;;;4.30;76.20;;;;;;5059214;28;20044;-62
2023/01/16 02:31:51;;;;;;;6.18;4.70;;;4.20;76.10;;;;;;5055275;28;20395;-53
2023/01/16 02:34:17;;;;;;;6.70;4.60;;;4.20;76.40;;;;;;5063810;28;20028;-55
2023/01/16 02:37:04;;;;;;;4.93;4.07;;;4.20;76.50;;;;;;5057682;28;20461;-60
2023/01/16 02:39:38;;;;;;;6.00;4.60;;;4.20;76.60;;;;;;5046242;28;20034;-61
2023/01/16 02:42:15;;;;;;;5.93;4.78;;;4.20;76.70;;;;;;5053588;28;20548;-58
2023/01/16 02:44:56;;;;;;;7.25;4.32;;;4.20;76.70;;;;;;5054984;28;20053;-57
2023/01/16 02:47:40;;;;;;;5.85;4.22;;;4.20;76.60;;;;;;5064897;28;20039;-56
2023/01/16 02:50:05;;;;;;;6.30;4.50;;;4.20;76.70;;;;;;5038865;28;20048;-55
2023/01/16 02:52:46;;;;;;;6.10;4.30;;;4.20;76.70;;;;;;5054176;28;20026;-54
2023/01/16 02:55:28;;;;;;;4.25;3.70;;;4.20;76.50;;;;;;5059905;28;20064;-54
2023/01/16 02:58:01;;;;;;;5.75;3.70;;;4.20;76.50;;;;;;5054326;28;20498;-55
2023/01/16 03:00:27;;;;;;;5.97;3.97;;;4.20;76.40;;;;;;5047702;28;20038;-58
2023/01/16 03:02:53;;;;;;;7.28;4.10;;;4.10;76.30;;;;;;5067908;28;20772;-60
2023/01/16 03:05:20;;;;;;;4.28;3.47;;;4.10;76.20;;;;;;5057068;28;20072;-57
2023/01/16 03:07:48;;;;;;;6.00;4.18;;;4.10;76.30;;;;;;5042087;28;20029;-59
2023/01/16 03:10:22;;;;;;;5.50;3.90;;;4.00;76.10;;;;;;5053291;28;20040;-57
2023/01/16 03:13:25;;;;;;;4.22;3.33;;;4.00;76.30;;;;;;5063960;28;20029;-58
2023/01/16 03:16:15;;;;;;;3.58;3.25;;;4.00;76.20;;;;;;5054365;28;20111;-60
2023/01/16 03:18:51;;;;;;;4.75;3.47;;;4.00;76.40;;;;;;5059499;28;20045;-60
2023/01/16 03:21:42;;;;;;;3.53;2.80;;;4.00;76.40;;;;;;5050121;28;20036;-57
2023/01/16 03:24:32;;;;;;;4.32;3.25;;;4.00;76.30;;;;;;5054171;28;20456;-54
2023/01/16 03:27:08;;;;;;;4.18;3.20;;;4.00;76.30;;;;;;5054628;28;20053;-57
2023/01/16 03:29:41;;;;;;;3.60;2.92;;;4.00;76.40;;;;;;5055510;28;20056;-56
2023/01/16 03:32:11;;;;;;;5.15;3.47;;;4.00;76.60;;;;;;5054596;28;20033;-52
2023/01/16 03:35:00;;;;;;;3.80;3.38;;;4.00;76.60;;;;;;5063291;28;20032;-54
2023/01/16 03:37:41;;;;;;;3.47;3.00;;;4.00;76.50;;;;;;5041712;28;20537;-53
2023/01/16 03:40:11;;;;;;;3.40;3.10;;;4.00;76.60;;;;;;5053216;28;20033;-53
2023/01/16 03:42:45;;;;;;;3.72;3.20;;;4.00;76.70;;;;;;5049273;28;20020;-54
2023/01/16 03:45:18;;;;;;;4.18;3.00;;;4.00;76.70;;;;;;5047538;28;20035;-56
2023/01/16 03:47:51;;;;;;;4.90;3.25;;;4.00;76.70;;;;;;5057232;28;20033;-55
2023/01/16 03:50:22;;;;;;;4.35;3.67;;;3.90;76.60;;;;;;5052064;28;20063;-54
2023/01/16 03:52:53;;;;;;;4.47;3.73;;;3.90;76.70;;;;;;5062751;28;20040;-58
2023/01/16 03:55:19;;;;;;;5.57;4.18;;;3.80;76.80;;;;;;5063298;28;20296;-54
2023/01/16 03:58:19;;;;;;;8.05;5.07;;;3.80;77.10;;;;;;5054049;28;20025;-56
2023/01/16 04:01:09;;;;;;;9.98;5.88;;;3.80;77.10;;;;;;5042005;28;20497;-57
2023/01/16 04:03:47;;;;;;;5.80;5.03;;;3.80;77.30;;;;;;5021033;28;20120;-54
2023/01/16 04:06:31;;;;;;;6.97;5.18;;;3.80;77.50;;;;;;5044622;28;20032;-54
2023/01/16 04:08:58;;;;;;;7.25;5.47;;;3.80;77.50;;;;;;5055249;28;20040;-55
2023/01/16 04:11:25;;;;;;;7.53;5.40;;;3.80;77.50;;;;;;5059026;28;20025;-54
2023/01/16 04:13:56;;;;;;;8.00;6.55;;;3.80;77.50;;;;;;5054156;28;20111;-56
2023/01/16 04:16:22;;;;;;;10.37;6.40;;;3.80;77.60;;;;;;5058266;28;20375;-54
2023/01/16 04:18:52;;;;;;;10.25;6.82;;;3.70;77.70;;;;;;5050180;28;20665;-53
2023/01/16 04:21:18;;;;;;;8.65;6.30;;;3.70;77.80;;;;;;5053021;28;20029;-61
2023/01/16 04:23:44;;;;;;;9.45;6.65;;;3.60;78.00;;;;;;5057999;28;20071;-56
2023/01/16 04:26:10;;;;;;;7.40;5.57;;;3.60;78.20;;;;;;5051920;28;20029;-57
2023/01/16 04:28:35;;;;;;;9.85;6.03;;;3.60;78.50;;;;;;5054227;28;20503;-57
2023/01/16 04:31:01;;;;;;;7.75;6.63;;;3.60;78.70;;;;;;5063358;28;20402;-47
2023/01/16 04:33:27;;;;;;;9.77;7.18;;;3.60;78.80;;;;;;5052347;28;20025;-47
2023/01/16 04:35:52;;;;;;;11.60;8.15;;;3.60;78.80;;;;;;5054040;28;20082;-53
2023/01/16 04:38:18;;;;;;;9.57;6.63;;;3.60;78.70;;;;;;5061108;28;20021;-53
2023/01/16 04:40:43;;;;;;;11.02;7.93;;;3.50;78.70;;;;;;5061912;28;20111;-51
2023/01/16 04:43:09;;;;;;;11.40;6.95;;;3.50;78.80;;;;;;5051797;28;20590;-49
2023/01/16 04:45:35;;;;;;;11.23;7.22;;;3.50;79.10;;;;;;5062222;28;20044;-50
2023/01/16 04:48:00;;;;;;;9.95;7.18;;;3.50;79.20;;;;;;5056358;28;20028;-50
2023/01/16 04:50:26;;;;;;;10.27;7.50;;;3.50;79.40;;;;;;5057135;28;20028;-56
2023/01/16 04:52:52;;;;;;;11.30;8.38;;;3.50;79.50;;;;;;5057213;28;20447;-54
2023/01/16 04:55:17;;;;;;;12.15;7.40;;;3.40;79.60;;;;;;5059719;28;20479;-59
2023/01/16 04:57:43;;;;;;;11.38;7.78;;;3.40;79.70;;;;;;5052446;28;20036;-59
2023/01/16 05:00:10;;;;;;;8.98;6.78;;;3.40;79.70;;;;;;5051698;28;20089;-58
2023/01/16 05:02:36;;;;;;;10.18;6.95;;;3.40;79.70;;;;;;5059508;28;20025;-59
2023/01/16 05:05:02;;;;;;;10.98;7.75;;;3.40;80.00;;;;;;5053379;28;20494;-59
2023/01/16 05:07:27;;;;;;;9.73;7.55;;;3.40;80.00;;;;;;5063878;28;20029;-62
2023/01/16 05:09:54;;;;;;;11.38;7.95;;;3.40;80.00;;;;;;5051272;28;20032;-61
2023/01/16 05:12:20;;;;;;;11.02;8.15;;;3.40;80.10;;;;;;5049696;28;20052;-61
2023/01/16 05:14:45;;;;;;;10.80;7.72;;;3.40;80.30;;;;;;5061092;28;20029;-61
2023/01/16 05:17:11;;;;;;;13.32;7.90;;;3.40;80.40;;;;;;5053951;28;20471;-59
2023/01/16 05:19:37;;;;;;;8.82;6.60;;;3.40;80.30;;;;;;5054307;28;20029;-58
2023/01/16 05:22:03;;;;;;;7.93;6.63;;;3.40;80.40;;;;;;5054187;28;20056;-59
2023/01/16 05:24:28;;;;;;;12.95;8.25;;;3.40;80.60;;;;;;5056982;28;20098;-58
2023/01/16 05:26:54;;;;;;;8.60;6.65;;;3.40;80.70;;;;;;5058554;28;20486;-62
2023/01/16 05:29:19;;;;;;;9.07;5.90;;;3.40;80.70;;;;;;5045651;28;20033;-63
2023/01/16 05:31:45;;;;;;;11.38;7.28;;;3.50;80.90;;;;;;5052792;28;20363;-63
2023/01/16 05:34:11;;;;;;;11.05;7.03;;;3.50;81.00;;;;;;5055569;28;20047;-64
2023/01/16 05:36:36;;;;;;;9.43;6.47;;;3.60;80.90;;;;;;5061130;28;20032;-64
2023/01/16 05:39:02;;;;;;;11.63;7.93;;;3.60;80.90;;;;;;5051677;28;20056;-63
2023/01/16 05:41:28;;;;;;;9.60;6.63;;;3.60;80.80;;;;;;5051665;28;20087;-58
2023/01/16 05:43:53;;;;;;;9.90;7.38;;;3.60;80.80;;;;;;5060816;28;20076;-58
2023/01/16 05:46:19;;;;;;;8.95;6.50;;;3.60;80.90;;;;;;5061292;28;20475;-61
2023/01/16 05:48:45;;;;;;;10.88;7.05;;;3.50;80.80;;;;;;5048029;28;20068;-61
2023/01/16 05:51:11;;;;;;;8.80;6.03;;;3.50;80.80;;;;;;5050434;28;20025;-62
2023/01/16 05:53:37;;;;;;;8.80;6.47;;;3.50;81.10;;;;;;5036321;28;20029;-61
2023/01/16 05:56:10;;;;;;;6.65;5.38;;;3.50;81.30;;;;;;5056717;28;20086;-60
2023/01/16 05:58:37;;;;;;;8.40;6.20;;;3.50;81.40;;;;;;5044575;28;20032;-59
2023/01/16 06:01:03;;;;;;;8.20;6.55;;;3.50;81.40;;;;;;5049862;28;20590;-61
2023/01/16 06:03:29;;;;;;;10.20;7.30;;;3.50;81.50;;;;;;5050177;28;20101;-61
2023/01/16 06:05:54;;;;;;;8.10;6.13;;;3.50;81.60;;;;;;5056539;28;20033;-60
2023/01/16 06:08:20;;;;;;;8.55;6.22;;;3.50;81.70;;;;;;5046497;28;20487;-60
2023/01/16 06:10:47;;;;;;;9.80;5.75;;;3.50;81.90;;;;;;5048312;28;20112;-60
2023/01/16 06:13:13;;;;;;;7.00;5.13;;;3.50;82.10;;;;;;5052322;28;20029;-60
2023/01/16 06:15:39;;;;;;;8.20;5.75;;;3.50;82.40;;;;;;5048791;28;20075;-57
2023/01/16 06:18:05;;;;;;;10.68;6.20;;;3.60;82.60;;;;;;5051443;28;20455;-56
2023/01/16 06:20:31;;;;;;;7.82;5.82;;;3.60;82.50;;;;;;5048938;28;20028;-54
2023/01/16 06:22:56;;;;;;;6.55;5.47;;;3.60;82.40;;;;;;5053881;28;20111;-51
2023/01/16 06:25:22;;;;;;;7.60;5.60;;;3.70;82.50;;;;;;5057602;28;20039;-59
2023/01/16 06:27:50;;;;;;;8.05;5.45;;;3.70;82.50;;;;;;5043711;28;20127;-59
2023/01/16 06:30:16;;;;;;;7.70;5.30;;;3.70;82.50;;;;;;5062555;28;20047;-59
2023/01/16 06:32:41;;;;;;;7.10;5.50;;;3.80;82.60;;;;;;5049937;28;20087;-60
2023/01/16 06:35:07;;;;;;;7.07;5.63;;;3.80;82.50;;;;;;5051699;28;20456;-56
2023/01/16 06:37:33;;;;;;;6.65;5.35;;;3.90;82.40;;;;;;5050326;28;20126;-59
2023/01/16 06:39:59;;;;;;;7.78;6.10;;;3.90;82.20;;;;;;5059436;28;20491;-57
2023/01/16 06:42:25;;;;;;;10.02;6.15;;;4.00;82.30;;;;;;5060172;28;20025;-57
2023/01/16 06:44:51;;;;;;;9.13;5.57;;;4.00;82.80;;;;;;5041198;28;20049;-58
2023/01/16 06:47:16;;;;;;;8.02;5.50;;;4.10;82.10;;;;;;5056029;28;20044;-55
2023/01/16 06:49:42;;;;;;;8.38;6.07;;;4.10;82.20;;;;;;5053932;28;20042;-58
2023/01/16 06:52:07;;;;;;;7.07;5.60;;;4.20;82.30;;;;;;5040969;28;20033;-56
2023/01/16 06:54:33;;;;;;;8.35;6.18;;;4.20;82.00;;;;;;5037249;28;20021;-58
2023/01/16 06:56:59;;;;;;;8.20;6.35;;;4.20;81.90;;;;;;5051042;28;20099;-58
2023/01/16 06:59:24;;;;;;;7.80;5.28;;;4.20;81.90;;;;;;5029774;28;20486;-57
2023/01/16 07:01:50;;;;;;;7.97;5.68;;;4.30;82.00;;;;;;5033544;28;20030;-57
2023/01/16 07:04:16;;;;;;;8.05;5.53;;;4.30;82.00;;;;;;5042209;28;20028;-57
2023/01/16 07:06:44;;;;;;;8.40;6.63;;;4.30;82.20;;;;;;5039439;28;20363;-56
2023/01/16 07:09:10;;;;;;;8.13;6.25;;;4.30;82.00;;;;;;5036623;28;20411;-58
2023/01/16 07:11:36;;;;;;;7.95;6.30;;;4.40;82.00;;;;;;5047197;28;20024;-56
2023/01/16 07:25:00;;;;;;;9.10;6.85;;;4.60;81.70;;;;;;5043679;28;20063;-56
2023/01/16 07:27:26;;;;;;;10.25;7.40;;;4.60;81.60;;;;;;5047516;28;20571;-56
2023/01/16 07:29:53;;;;;;;9.88;7.40;;;4.60;81.40;;;;;;5029517;28;20045;-57
2023/01/16 07:32:19;;;;;;;9.25;7.25;;;4.60;81.20;;;;;;5030008;28;20082;-55
2023/01/16 07:34:45;;;;;;;9.77;6.63;;;4.60;81.30;;;;;;5044192;28;20183;-56
2023/01/16 07:37:10;;;;;;;9.65;7.47;;;4.60;81.50;;;;;;5050528;28;20754;-57
2023/01/16 07:39:39;;;;;;;9.07;7.03;;;4.60;81.60;;;;;;5048035;28;20062;-57
2023/01/16 07:42:06;;;;;;;9.63;7.28;;;4.60;81.70;;;;;;5042360;28;20087;-56
2023/01/16 07:44:32;;;;;;;8.95;6.90;;;4.60;81.70;;;;;;5036101;28;20045;-56
2023/01/16 07:46:57;;;;;;;9.38;6.70;;;4.60;81.80;;;;;;5037224;28;20059;-56
2023/01/16 07:49:23;;;;;;;10.70;7.72;;;4.70;81.90;;;;;;5032608;28;20037;-58
2023/01/16 07:51:49;;;;;;;10.10;7.53;;;4.70;81.90;;;;;;5027968;28;20037;-56
2023/01/16 07:54:14;;;;;;;9.93;7.40;;;4.70;81.60;;;;;;5033910;28;20044;-57
2023/01/16 07:56:40;;;;;;;11.18;6.80;;;4.70;81.50;;;;;;5028535;28;20040;-57
2023/01/16 07:59:06;;;;;;;8.52;6.88;;;4.70;81.40;;;;;;5031089;28;20037;-56
2023/01/16 08:01:32;;;;;;;9.50;6.95;;;4.80;81.60;;;;;;5027877;28;20025;-57
2023/01/16 08:03:58;;;;;;;9.88;7.13;;;4.80;81.60;;;;;;5030581;28;20063;-56
2023/01/16 08:06:24;;;;;;;9.35;6.47;;;4.80;81.60;;;;;;5013887;28;20061;-57
2023/01/16 08:08:50;;;;;;;8.98;6.80;;;4.80;81.60;;;;;;5011158;28;20025;-56
2023/01/16 08:13:59;;;;;;;10.38;7.25;;;4.90;81.70;;;;;;5031178;28;20044;-56
2023/01/16 08:16:25;;;;;;;10.55;6.72;;;4.90;81.60;;;;;;5019333;28;20025;-55
2023/01/16 08:18:51;;;;;;;9.18;7.28;;;4.90;81.70;;;;;;5031650;28;20029;-58
2023/01/16 08:21:17;;;;;;;11.95;7.72;;;5.00;81.50;;;;;;5020416;28;20036;-56
2023/01/16 08:23:43;;;;;;;10.23;7.35;;;5.00;81.40;;;;;;5015558;28;20045;-58
2023/01/16 08:26:10;;;;;;;8.27;6.53;;;5.00;81.60;;;;;;5017255;28;20102;-56
2023/01/16 08:28:35;;;;;;;11.55;8.30;;;5.00;81.60;;;;;;5023837;28;21200;-57
2023/01/16 08:31:12;;;;;;;11.18;8.20;;;5.10;81.60;;;;;;5011617;28;20040;-57
2023/01/16 08:33:39;;;;;;;10.27;7.55;;;5.10;81.50;;;;;;5028666;28;20036;-59
2023/01/16 08:36:07;;;;;;;12.93;8.65;;;5.10;81.40;;;;;;5016952;28;22556;-58
2023/01/16 08:38:32;;;;;;;11.13;8.30;;;5.10;81.40;;;;;;5029359;28;20036;-58
2023/01/16 08:40:58;;;;;;;13.13;8.32;;;5.10;81.30;;;;;;5026092;28;20041;-58
2023/01/16 08:51:52;;;;;;;10.50;7.22;;;5.20;81.60;;;;;;5016098;28;20059;-58
2023/01/16 08:54:18;;;;;;;11.75;7.97;;;5.10;81.50;;;;;;5020794;28;20491;-58
2023/01/16 08:56:44;;;;;;;9.52;7.20;;;5.20;81.60;;;;;;5016220;28;20045;-55
2023/01/16 08:59:10;;;;;;;10.15;7.32;;;5.20;81.70;;;;;;5021397;28;20474;-56
2023/01/16 09:01:38;;;;;;;10.85;7.95;;;5.20;81.70;;;;;;5023040;28;20103;-57
2023/01/16 09:04:04;;;;;;;9.65;7.10;;;5.20;81.70;;;;;;5021434;28;20110;-58
2023/01/16 09:06:30;;;;;;;10.05;7.32;;;5.20;81.60;;;;;;5025086;28;20068;-57
2023/01/16 09:08:56;;;;;;;8.52;6.63;;;5.20;81.60;;;;;;5024611;28;20956;-56
2023/01/16 09:14:06;;;;;;;9.88;6.97;;;5.20;81.60;;;;;;5025714;28;20499;-57
2023/01/16 09:16:32;;;;;;;8.32;6.40;;;5.20;81.70;;;;;;5030703;28;20041;-56
2023/01/16 09:18:57;;;;;;;8.10;6.10;;;5.20;81.80;;;;;;5016304;28;20090;-57
2023/01/16 09:21:24;;;;;;;9.98;6.63;;;5.10;81.70;;;;;;5017940;28;20072;-59
2023/01/16 09:23:50;;;;;;;8.50;6.32;;;5.20;81.90;;;;;;5012530;28;20029;-56
2023/01/16 09:26:17;;;;;;;9.40;6.43;;;5.20;82.10;;;;;;5016754;28;20105;-58
2023/01/16 09:28:43;;;;;;;8.15;5.93;;;5.20;82.20;;;;;;5027878;28;20029;-58
2023/01/16 09:31:09;;;;;;;9.75;6.78;;;5.20;82.20;;;;;;5011961;28;20033;-58
2023/01/16 09:33:36;;;;;;;7.75;5.45;;;5.20;82.10;;;;;;5014139;28;20718;-57
2023/01/16 09:36:03;;;;;;;9.05;6.10;;;5.30;82.20;;;;;;5015106;28;20032;-57
2023/01/16 09:38:29;;;;;;;8.63;6.97;;;5.30;82.10;;;;;;5015155;28;20036;-58
2023/01/16 09:40:57;;;;;;;7.30;5.97;;;5.30;82.10;;;;;;5016369;28;20029;-59
2023/01/16 09:43:40;;;;;;;7.03;5.60;;;5.30;82.20;;;;;;5030138;28;20438;-57
2023/01/16 09:46:13;;;;;;;6.78;5.40;;;5.30;82.10;;;;;;5021774;28;20032;-58
2023/01/16 09:48:52;;;;;;;6.43;5.45;;;5.40;82.10;;;;;;5019397;28;20588;-58
2023/01/16 09:51:41;;;;;;;7.85;5.85;;;5.40;82.10;;;;;;5002406;28;20061;-57
2023/01/16 09:59:54;;;;;;;7.07;5.38;;;5.50;81.60;;;;;;5008580;28;20052;-56
2023/01/16 10:02:32;;;;;;;6.65;5.30;;;5.60;81.60;;;;;;4994419;28;20029;-54
2023/01/16 10:04:58;;;;;;;6.43;5.38;;;5.60;81.60;;;;;;5016141;28;20037;-55
2023/01/16 10:07:46;;;;;;;6.88;5.35;;;5.50;81.60;;;;;;5020019;28;20041;-55
2023/01/16 10:10:30;;;;;;;6.68;5.15;;;5.60;81.90;;;;;;5022856;28;20037;-55
2023/01/16 10:13:23;;;;;;;7.53;5.35;;;5.60;82.00;;;;;;5031423;28;20028;-56
2023/01/16 10:16:12;;;;;;;8.52;5.65;;;5.60;81.80;;;;;;5014904;28;20029;-57
2023/01/16 10:19:05;;;;;;;6.03;4.93;;;5.70;81.80;;;;;;5020610;28;20053;-57
2023/01/16 10:21:51;;;;;;;7.00;5.47;;;5.70;81.70;;;;;;5020962;28;20049;-57
2023/01/16 10:24:31;;;;;;;7.38;5.47;;;5.70;81.70;;;;;;5007170;28;21389;-58
2023/01/16 10:27:04;;;;;;;8.05;5.35;;;5.80;81.70;;;;;;5020587;28;20052;-58
2023/01/16 10:29:34;;;;;;;7.82;5.68;;;5.80;81.50;;;;;;5008694;28;20102;-58
2023/01/16 10:32:06;;;;;;;9.02;6.15;;;5.80;81.50;;;;;;5017229;28;20029;-57
2023/01/16 10:34:35;;;;;;;7.32;5.45;;;5.90;81.40;;;;;;5014761;28;20054;-57
2023/01/16 10:37:01;;;;;;;9.02;6.30;;;5.90;81.40;;;;;;5014806;28;20969;-58
2023/01/16 10:39:33;;;;;;;8.23;6.38;;;5.90;81.30;;;;;;5019812;28;20037;-56
2023/01/16 10:51:14;;;;;;;10.07;6.50;;;5.90;81.30;;;;;;4981127;28;20051;-57
2023/01/16 10:53:39;;;;;;;9.00;6.30;;;5.90;81.20;;;;;;4999421;28;20038;-56
2023/01/16 10:56:05;;;;;;;10.60;6.90;;;5.90;81.20;;;;;;5020064;28;20641;-60
2023/01/16 10:58:36;;;;;;;8.55;6.20;;;5.90;81.10;;;;;;5022061;28;20157;-61
2023/01/16 11:01:13;;;;;;;9.65;6.53;;;5.90;81.30;;;;;;5019691;28;20994;-59
2023/01/16 11:03:53;;;;;;;8.75;6.55;;;5.90;81.30;;;;;;5020845;28;20037;-62
2023/01/16 11:06:23;;;;;;;9.65;7.03;;;5.90;81.30;;;;;;5021100;28;20095;-58
2023/01/16 11:09:14;;;;;;;7.75;5.65;;;5.90;81.40;;;;;;5021223;28;20038;-58
2023/01/16 11:20:34;;;;;;;8.02;5.68;;;6.00;81.60;;;;;;5020202;28;20067;-58
2023/01/16 11:23:19;;;;;;;9.45;6.93;;;6.00;81.20;;;;;;5023053;28;20061;-60
2023/01/16 11:25:47;;;;;;;9.52;6.65;;;6.00;81.30;;;;;;5003723;28;20552;-59
2023/01/16 11:28:20;;;;;;;7.72;6.28;;;6.00;81.30;;;;;;5011727;28;20136;-59
2023/01/16 11:30:48;;;;;;;9.70;6.80;;;6.10;81.20;;;;;;5013672;28;20086;-59
2023/01/16 11:33:17;;;;;;;8.63;6.00;;;6.10;81.70;;;;;;5018009;28;20047;-60
2023/01/16 11:35:56;;;;;;;8.02;6.15;;;6.10;81.20;;;;;;5022161;28;20048;-60
2023/01/16 11:38:23;;;;;;;6.80;5.78;;;6.10;81.20;;;;;;5006841;28;20688;-59
2023/01/16 11:40:52;;;;;;;8.10;6.30;;;6.10;81.30;;;;;;5018447;28;20077;-61
2023/01/16 11:46:27;;;;;;;7.85;6.22;;;6.10;81.40;;;;;;5016788;28;21039;-59
2023/01/16 11:48:55;;;;;;;9.40;6.38;;;6.10;81.30;;;;;;5015369;28;20172;-61
2023/01/16 11:51:26;;;;;;;9.13;6.38;;;6.20;81.30;;;;;;5032033;28;20040;-61
2023/01/16 11:53:54;;;;;;;8.07;5.93;;;6.20;81.20;;;;;;5015664;28;20041;-59
2023/01/16 11:56:57;;;;;;;7.88;6.10;;;6.20;81.20;;;;;;5012906;28;20033;-60
2023/01/16 11:59:54;;;;;;;8.77;6.43;;;6.20;81.10;;;;;;5024248;28;20045;-61
2023/01/16 12:02:45;;;;;;;9.13;6.80;;;6.20;81.20;;;;;;5014727;28;20028;-58
2023/01/16 12:05:54;;;;;;;8.35;6.30;;;6.20;81.30;;;;;;5018149;28;20162;-58
2023/01/16 12:08:32;;;;;;;7.68;6.03;;;6.20;81.30;;;;;;5022307;28;20048;-58
2023/01/16 12:11:04;;;;;;;9.35;5.93;;;6.20;81.30;;;;;;5026725;28;20053;-59
2023/01/16 12:16:54;;;;;;;9.50;6.07;;;6.20;81.20;;;;;;5018570;28;19931;-58
2023/01/16 12:19:49;;;;;;;9.20;5.80;;;6.20;81.10;;;;;;5022561;28;20040;-58
2023/01/16 12:22:15;;;;;;;8.18;6.20;;;6.30;81.30;;;;;;5021742;28;20488;-59
2023/01/16 12:25:03;;;;;;;9.13;6.60;;;6.30;82.00;;;;;;5014805;28;20048;-57
2023/01/16 12:27:58;;;;;;;10.73;7.40;;;6.30;81.20;;;;;;5014406;28;20036;-62
2023/01/16 12:31:00;;;;;;;11.77;7.38;;;6.30;81.00;;;;;;5016706;28;20040;-57
2023/01/16 12:33:35;;;;;;;8.23;6.57;;;6.30;80.80;;;;;;5025094;28;20249;-59
2023/01/16 12:36:11;;;;;;;11.55;7.65;;;6.30;81.00;;;;;;5026189;28;20095;-60
2023/01/16 12:38:51;;;;;;;10.35;7.05;;;6.30;81.00;;;;;;5023011;28;20033;-61
2023/01/16 12:44:45;;;;;;;9.60;7.38;;;6.30;81.00;;;;;;5026216;28;20089;-60
2023/01/16 12:47:25;;;;;;;8.18;6.28;;;6.30;80.90;;;;;;5020074;28;20032;-58
2023/01/16 13:03:12;;;;;;;11.38;7.28;;;6.30;81.00;;;;;;5001285;28;20188;-60
2023/01/16 13:05:41;;;;;;;10.38;7.55;;;6.30;81.30;;;;;;5017210;28;20060;-60
2023/01/16 13:08:24;;;;;;;12.10;8.32;;;6.30;81.30;;;;;;5015308;28;20155;-60
2023/01/16 13:13:55;;;;;;;9.27;7.15;;;6.30;81.20;;;;;;5014739;28;20056;-58
2023/01/16 13:16:33;;;;;;;11.70;7.45;;;6.30;81.20;;;;;;5012258;28;20090;-59
2023/01/16 13:19:20;;;;;;;8.65;6.60;;;6.30;81.20;;;;;;5011793;28;20118;-60
2023/01/16 13:22:19;;;;;;;10.02;7.25;;;6.30;81.50;;;;;;5026577;28;20481;-58
2023/01/16 13:25:14;;;;;;;7.78;6.53;;;6.30;81.40;;;;;;5019616;28;20058;-59
2023/01/16 13:27:44;;;;;;;9.25;6.90;;;6.30;81.20;;;;;;5020861;28;20859;-58
2023/01/16 13:30:17;;;;;;;10.27;7.35;;;6.30;81.30;;;;;;5021747;28;20045;-59
2023/01/16 13:33:07;;;;;;;10.18;7.30;;;6.30;81.30;;;;;;5016450;28;20831;-58
2023/01/16 13:35:36;;;;;;;9.77;7.47;;;6.30;81.20;;;;;;5024023;28;20091;-57
2023/01/16 13:38:32;;;;;;;12.75;8.52;;;6.30;81.30;;;;;;5015640;28;20123;-56
2023/01/16 13:41:14;;;;;;;10.05;7.43;;;6.30;81.50;;;;;;5032451;28;20051;-57
2023/01/16 13:46:46;;;;;;;10.30;6.85;;;6.30;81.40;;;;;;5029684;28;20048;-57
2023/01/16 13:49:21;;;;;;;11.13;8.23;;;6.20;81.40;;;;;;5025101;28;20032;-57
2023/01/16 13:51:50;;;;;;;12.48;8.57;;;6.20;81.50;;;;;;5033596;28;20078;-58
2023/01/16 13:54:23;;;;;;;12.55;8.63;;;6.20;81.50;;;;;;5023438;28;20029;-57
2023/01/16 13:57:01;;;;;;;13.07;8.43;;;6.20;81.40;;;;;;5028365;28;20033;-59
2023/01/16 13:59:30;;;;;;;11.95;8.10;;;6.10;81.50;;;;;;5030407;28;20082;-58
2023/01/16 14:01:56;;;;;;;15.30;8.50;;;6.10;81.70;;;;;;5029831;28;20025;-57
2023/01/16 14:04:23;;;;;;;11.32;7.90;;;6.10;81.70;;;;;;5024473;28;20039;-59
2023/01/16 14:10:11;;;;;;;10.70;8.00;;;6.00;81.90;;;;;;5015400;28;20099;-59
2023/01/16 14:13:14;;;;;;;12.73;8.30;;;6.10;82.00;;;;;;5011821;28;20161;-57
2023/01/16 14:19:02;;;;;;;13.50;8.38;;;6.10;82.00;;;;;;5018121;28;20040;-60
2023/01/16 14:21:37;;;;;;;12.40;8.10;;;6.10;81.90;;;;;;5027300;28;20021;-59
2023/01/16 14:24:06;;;;;;;17.33;10.48;;;6.10;82.00;;;;;;5034077;28;20099;-58
2023/01/16 14:26:34;;;;;;;12.88;8.93;;;6.10;82.00;;;;;;5012334;28;20045;-59
2023/01/16 14:29:04;;;;;;;14.75;8.43;;;6.10;82.00;;;;;;5010752;28;20033;-58
2023/01/16 14:31:45;;;;;;;14.73;8.95;;;6.10;82.20;;;;;;5024238;28;20589;-58
2023/01/16 14:34:26;;;;;;;11.68;9.30;;;6.10;82.20;;;;;;5022581;28;20707;-60
2023/01/16 14:36:54;;;;;;;13.90;9.25;;;6.10;82.10;;;;;;5030089;28;20033;-58
2023/01/16 14:39:33;;;;;;;17.35;10.95;;;6.00;82.10;;;;;;5027506;28;20029;-60
2023/01/16 14:57:21;;;;;;;12.95;8.90;;;6.00;82.50;;;;;;5009096;28;20548;-57